AirNav   Air Wisconsin pilot careers
 
 388 users online  

MS13 Eifling Farms Airport
Glen Allan, Mississippi, USA

GOING TO GLEN ALLAN?


FAA INFORMATION EFFECTIVE 12 SEPTEMBER 2019

Location

FAA Identifier: MS13
Lat/Long: 33-04-32.4440N 090-57-12.3700W
33-04.540733N 090-57.206167W
33.0756789,-90.9534361
(estimated)
Elevation: 110 ft. / 34 m (estimated)
Variation: 03E (1985)
From city: 5 miles NE of GLEN ALLAN, MS
Time zone: UTC -5 (UTC -6 during Standard Time)
Zip code: 38748

Airport Operations

Airport use: Private use. Permission required prior to landing
Activation date: 10/1964
Control tower: no
ARTCC: MEMPHIS CENTER
FSS: GREENWOOD FLIGHT SERVICE STATION
Attendance: DAYLIGHT HOURS
Wind indicator: yes
Segmented circle: no

Nearby radio navigation aids

VOR radial/distance  VOR name  Freq  Var
GLHr173/26.9GREENVILLE VOR/DME110.2004E

 
NDB name  Hdg/Dist  Freq  Var  ID
METCALF177/21.035901WMTQ -- - --.-

Airport Services

Fuel available: 100
Airframe service: NONE
Powerplant service: NONE

Runway Information

Runway 3/21

Dimensions: 2600 x 90 ft. / 792 x 27 m
Surface: turf
RUNWAY 3  RUNWAY 21
Traffic pattern: leftleft

Airport Ownership and Management from official FAA records

Ownership: Privately-owned
Owner: W. T. & H. R. EIFLING
RT 1, BOX 285
HOLLANDALE, MS 38748
Manager: BOYD EIFLING
RT 1, BOX 285
HOLLANDALE, MS 38748
Phone 662-839-6927

Airport Operational Statistics

Aircraft based on the field: 1
Single engine airplanes: 1
    

Additional Remarks

FOR CD CTC MEMPHIS ARTCC AT 901-368-8453.

Instrument Procedures

There are no published instrument procedures at MS13.

Some nearby airports with instrument procedures:

M32 - Lake Village Municipal Airport (24 nm NW)
KGLH - Greenville Mid-Delta Airport (24 nm N)
87I - Yazoo County Airport (27 nm SE)
KIDL - Indianola Municipal Airport (28 nm NE)
7M1 - Mc Gehee Municipal Airport (39 nm NW)
 
Loc | Ops | Rwys | IFR | FBO | Links
Com | Nav | Svcs | Stats | Notes
Area around MS13 (Eifling Farms Airport)
 
Road maps at: MapQuest Bing Google
 
Aerial photo
No photo
 
Sectional chart

 
Airport distance calculator
Flying to Eifling Farms Airport? Find the distance to fly.

From to MS13

Sunrise and sunset
Times for 21-Sep-2019
 Local
(UTC-5)
 Zulu
(UTC)
Morning civil twilight06:2811:28
Sunrise06:5211:52
Sunset19:0200:02
Evening civil twilight19:2600:26

Current date and time
Zulu (UTC)  21-Sep-2019 10:31:07
Local (UTC-5)  21-Sep-2019 05:31:07
 
METAR
KGLH 
26nm N 
210953Z AUTO 00000KT 10SM BKN060 20/18 A3015 RMK AO2 SLP214 T02000178 $
KRNV 
42nm N 
211015Z AUTO 15005KT 10SM CLR 21/16 A3017 RMK AO2 T02080161
KTVR 
44nm S 
210953Z AUTO 00000KT 10SM CLR 19/17 A3015 RMK AO2 SLP214 T01890167
TAF
KGLH 
26nm N 
210528Z 2106/2206 14005KT P6SM FEW050 SCT300
NOTAMs
Click for the latest NOTAMs
NOTAMs are issued by the DoD/FAA and will open in a separate window not controlled by AirNav.

 

 
 

Would you like to see your business listed on this page?

 If your business provides an interesting product or service to pilots, flight crews, aircraft, or users of the Eifling Farms Airport, you should consider listing it here.  To start the listing process, click on the button below
 
Add a business
 

Other Pages about Eifling Farms Airport

Update a link
 
Copyright © AirNav, LLC. All rights reserved. Privacy Policy  Contact